createdAt,value
2022-09-27T00:02:09.057Z,20.90
2022-09-27T00:06:29.878Z,20.50
2022-09-27T00:10:32.176Z,19.80
2022-09-27T00:14:34.111Z,20.10
2022-09-27T00:18:36.077Z,19.80
2022-09-27T00:22:38.138Z,19.50
2022-09-27T00:26:40.235Z,18.30
2022-09-27T00:30:42.507Z,17.70
2022-09-27T00:34:44.719Z,19.60
2022-09-27T00:38:47.234Z,15.10
2022-09-27T00:42:49.448Z,16.30
2022-09-27T00:47:02.319Z,14.80
2022-09-27T00:51:06.982Z,13.80
2022-09-27T00:55:24.958Z,14.60
2022-09-27T00:59:33.766Z,13.90
2022-09-27T01:04:03.074Z,14.30
2022-09-27T01:08:05.297Z,13.80
2022-09-27T01:12:33.605Z,13.60
2022-09-27T01:16:53.832Z,14.30
2022-09-27T01:21:24.891Z,13.90
2022-09-27T01:25:52.857Z,13.60
2022-09-27T01:30:41.022Z,12.40
2022-09-27T01:34:58.871Z,12.80
2022-09-27T01:39:03.760Z,12.70
2022-09-27T01:43:23.986Z,13.20
2022-09-27T01:47:37.488Z,13.00
2022-09-27T01:52:00.535Z,12.80
2022-09-27T01:56:09.247Z,13.60
2022-09-27T02:00:26.071Z,11.50
2022-09-27T02:04:33.324Z,11.90
2022-09-27T02:08:50.722Z,11.90
2022-09-27T02:13:11.524Z,11.30
2022-09-27T02:17:35.069Z,10.50
2022-09-27T02:21:59.413Z,10.60
2022-09-27T02:26:11.218Z,10.70
2022-09-27T02:30:15.425Z,11.20
2022-09-27T02:34:25.602Z,10.30
2022-09-27T02:38:28.699Z,9.50
2022-09-27T02:42:33.305Z,8.90
2022-09-27T02:46:41.596Z,8.80
2022-09-27T02:51:13.114Z,9.00
2022-09-27T02:55:30.238Z,9.00
2022-09-27T03:00:09.753Z,8.80
2022-09-27T03:04:59.135Z,9.60
2022-09-27T03:09:01.189Z,9.40
2022-09-27T03:13:04.530Z,10.40
2022-09-27T03:17:07.112Z,9.20
2022-09-27T03:21:39.589Z,9.20
2022-09-27T03:25:41.881Z,9.40
2022-09-27T03:29:45.741Z,10.30
2022-09-27T03:33:47.804Z,11.30
2022-09-27T03:37:49.954Z,9.80
2022-09-27T03:41:52.776Z,9.70
2022-09-27T03:45:55.118Z,10.10
2022-09-27T03:49:57.253Z,9.50
2022-09-27T03:53:59.284Z,11.10
2022-09-27T03:58:01.684Z,10.40
2022-09-27T04:02:07.913Z,10.30
2022-09-27T04:06:30.024Z,10.30
2022-09-27T04:10:32.071Z,10.60
2022-09-27T04:14:34.017Z,10.10
2022-09-27T04:18:59.323Z,11.30
2022-09-27T04:23:30.104Z,11.00
2022-09-27T04:27:32.710Z,12.10
2022-09-27T04:31:36.746Z,11.30
2022-09-27T04:36:16.054Z,11.20
2022-09-27T04:40:33.204Z,11.90
2022-09-27T04:44:35.376Z,11.00
2022-09-27T04:48:37.752Z,12.00
2022-09-27T04:52:40.398Z,13.70
2022-09-27T04:56:42.515Z,12.50
2022-09-27T05:00:47.445Z,12.80
2022-09-27T05:05:11.970Z,14.20
2022-09-27T05:09:16.319Z,12.20
2022-09-27T05:13:26.372Z,15.30
2022-09-27T05:17:28.597Z,14.20
2022-09-27T05:22:02.883Z,14.70
2022-09-27T05:26:06.486Z,15.00
2022-09-27T05:30:10.611Z,15.10
2022-09-27T05:34:20.619Z,15.10
2022-09-27T05:38:32.922Z,13.10
2022-09-27T05:42:38.662Z,11.70
2022-09-27T05:46:41.454Z,12.00
2022-09-27T05:50:44.295Z,12.20
2022-09-27T05:54:46.324Z,11.70
2022-09-27T05:58:48.699Z,11.50
2022-09-27T06:03:02.980Z,13.10
2022-09-27T06:07:23.800Z,11.10
2022-09-27T06:11:27.069Z,11.20
2022-09-27T06:15:31.034Z,11.80
2022-09-27T06:19:33.327Z,10.00
2022-09-27T06:23:35.779Z,10.10
2022-09-27T06:27:45.584Z,9.90
2022-09-27T06:31:58.907Z,11.00
2022-09-27T06:36:29.940Z,11.50
2022-09-27T06:40:32.299Z,11.90
2022-09-27T06:45:12.928Z,11.90
2022-09-27T06:49:53.269Z,12.20
2022-09-27T06:53:55.465Z,13.10
2022-09-27T06:58:18.496Z,11.00
2022-09-27T07:02:40.445Z,12.20
2022-09-27T07:07:18.185Z,12.00
2022-09-27T07:11:22.989Z,12.40
2022-09-27T07:15:24.980Z,10.60
2022-09-27T07:19:27.062Z,13.10
2022-09-27T07:23:28.997Z,13.00
2022-09-27T07:27:32.836Z,12.20
2022-09-27T07:31:37.289Z,11.30
2022-09-27T07:35:40.941Z,10.90
2022-09-27T07:39:44.273Z,11.80
2022-09-27T07:43:48.110Z,12.40
2022-09-27T07:47:50.774Z,12.70
2022-09-27T07:51:57.940Z,12.50
2022-09-27T07:56:23.365Z,11.20
2022-09-27T08:00:26.180Z,10.00
2022-09-27T08:04:28.178Z,11.50
2022-09-27T08:08:30.459Z,10.60
2022-09-27T08:12:34.455Z,11.00
2022-09-27T08:16:36.611Z,10.80
2022-09-27T08:21:04.177Z,10.90
2022-09-27T08:25:34.535Z,12.80
2022-09-27T08:29:41.306Z,14.40
2022-09-27T08:33:43.411Z,16.40
2022-09-27T08:37:59.423Z,17.20
2022-09-27T08:42:11.890Z,19.90
2022-09-27T08:46:46.930Z,19.20
2022-09-27T08:50:50.054Z,20.50
2022-09-27T08:54:53.083Z,19.30
2022-09-27T08:59:20.651Z,17.90
2022-09-27T09:03:27.805Z,17.90
2022-09-27T09:07:48.729Z,16.60
2022-09-27T09:12:33.098Z,17.50
2022-09-27T09:16:44.197Z,15.70
2022-09-27T09:20:55.139Z,15.70
2022-09-27T09:25:06.247Z,15.90
2022-09-27T09:29:26.152Z,16.10
2022-09-27T09:33:36.456Z,13.40
2022-09-27T09:37:50.543Z,13.90
2022-09-27T09:42:11.299Z,13.20
2022-09-27T09:46:44.770Z,13.60
2022-09-27T09:50:52.636Z,12.60
2022-09-27T09:55:07.122Z,11.90
2022-09-27T09:59:17.964Z,11.40
2022-09-27T10:03:22.667Z,10.60
2022-09-27T10:07:26.841Z,10.90
2022-09-27T10:11:38.745Z,10.70
2022-09-27T10:16:22.276Z,9.80
2022-09-27T10:20:43.476Z,10.10
2022-09-27T10:25:03.126Z,11.50
2022-09-27T10:29:38.630Z,10.20
2022-09-27T10:34:02.486Z,9.80
2022-09-27T10:38:18.404Z,8.80
2022-09-27T10:42:20.417Z,9.70
2022-09-27T10:46:33.145Z,9.20
2022-09-27T10:51:06.596Z,8.20
2022-09-27T10:55:24.301Z,8.90
2022-09-27T10:59:31.289Z,9.20
2022-09-27T11:03:47.483Z,8.40
2022-09-27T11:07:52.996Z,9.10
2022-09-27T11:12:09.839Z,9.50
2022-09-27T11:16:20.686Z,8.60
2022-09-27T11:20:42.581Z,9.20
2022-09-27T11:25:03.235Z,9.50
2022-09-27T11:29:22.632Z,8.20
2022-09-27T11:34:17.020Z,7.70
2022-09-27T11:43:22.496Z,7.00
2022-09-27T11:47:49.638Z,6.60
2022-09-27T11:51:54.596Z,8.70
2022-09-27T11:56:13.097Z,8.00
2022-09-27T12:00:20.163Z,7.10
2022-09-27T12:04:54.008Z,8.20
2022-09-27T12:09:09.689Z,8.20
2022-09-27T12:13:14.318Z,7.90
2022-09-27T12:17:27.197Z,8.40
2022-09-27T12:21:32.117Z,8.30
2022-09-27T12:25:39.711Z,8.10
2022-09-27T12:29:50.565Z,9.20
2022-09-27T12:34:20.123Z,9.60
2022-09-27T12:39:19.109Z,9.20
2022-09-27T12:43:31.341Z,9.10
2022-09-27T12:48:06.590Z,10.10
2022-09-27T12:52:14.327Z,10.00
2022-09-27T12:56:34.654Z,10.20
2022-09-27T13:00:51.138Z,9.50
2022-09-27T13:05:09.578Z,10.20
2022-09-27T13:09:17.749Z,10.70
2022-09-27T13:13:25.898Z,10.80
2022-09-27T13:17:48.155Z,9.90
2022-09-27T13:22:04.459Z,12.40
2022-09-27T13:26:38.046Z,12.00
2022-09-27T13:30:43.802Z,11.20
2022-09-27T13:34:52.898Z,10.80
2022-09-27T13:39:10.858Z,10.10
2022-09-27T13:43:47.233Z,9.70
2022-09-27T13:48:16.107Z,7.70
2022-09-27T13:53:13.831Z,6.80
2022-09-27T13:57:39.895Z,7.40
2022-09-27T14:01:52.741Z,9.00
2022-09-27T14:06:06.593Z,7.60
2022-09-27T14:10:16.775Z,7.00
2022-09-27T14:14:24.344Z,7.30
2022-09-27T14:18:30.003Z,6.60
2022-09-27T14:22:34.310Z,6.70
2022-09-27T14:26:42.304Z,7.70
2022-09-27T14:30:46.232Z,7.00
2022-09-27T14:35:39.530Z,6.60
2022-09-27T14:39:41.755Z,6.80
2022-09-27T14:43:57.638Z,6.10
2022-09-27T14:48:00.232Z,6.20
2022-09-27T14:52:02.311Z,6.00
2022-09-27T14:56:07.685Z,6.30
2022-09-27T15:00:18.433Z,6.20
2022-09-27T15:04:23.007Z,6.70
2022-09-27T15:08:35.745Z,6.10
2022-09-27T15:12:38.750Z,6.50
2022-09-27T15:16:41.910Z,6.90
2022-09-27T15:20:53.961Z,6.50
2022-09-27T15:25:19.374Z,6.00
2022-09-27T15:29:24.512Z,6.50
2022-09-27T15:33:31.305Z,7.20
2022-09-27T15:37:39.729Z,7.30
2022-09-27T15:46:23.932Z,9.30
2022-09-27T15:50:25.852Z,9.20
2022-09-27T15:54:30.250Z,8.00
2022-09-27T15:58:34.387Z,9.30
2022-09-27T16:02:36.556Z,7.50
2022-09-27T16:06:38.677Z,6.90
2022-09-27T16:10:45.565Z,8.90
2022-09-27T16:14:47.957Z,9.00
2022-09-27T16:18:49.921Z,7.60
2022-09-27T16:22:53.432Z,7.50
2022-09-27T16:26:55.416Z,7.20
2022-09-27T16:31:05.680Z,8.50
2022-09-27T16:35:08.971Z,8.30
2022-09-27T16:39:13.204Z,9.70
2022-09-27T16:43:15.652Z,9.10
2022-09-27T16:47:17.533Z,11.70
2022-09-27T16:51:39.700Z,19.70
2022-09-27T16:55:41.658Z,18.10
2022-09-27T16:59:43.722Z,19.30
2022-09-27T17:03:54.420Z,20.80
2022-09-27T17:08:00.524Z,19.70
2022-09-27T17:12:03.161Z,22.90
2022-09-27T17:16:05.977Z,27.40
2022-09-27T17:20:08.615Z,27.60
2022-09-27T17:24:10.949Z,22.80
2022-09-27T17:28:12.969Z,19.60
2022-09-27T17:32:14.872Z,24.10
2022-09-27T17:36:20.132Z,23.10
2022-09-27T17:40:22.350Z,23.10
2022-09-27T17:44:26.462Z,23.90
2022-09-27T17:48:47.070Z,20.10
2022-09-27T17:52:49.128Z,16.80
2022-09-27T17:56:51.690Z,45.00
2022-09-27T18:00:55.708Z,47.30
2022-09-27T18:04:59.543Z,28.60
2022-09-27T18:09:01.947Z,19.00
2022-09-27T18:13:05.455Z,16.50
2022-09-27T18:17:10.946Z,16.20
2022-09-27T18:21:18.952Z,16.40
2022-09-27T18:25:24.845Z,16.40
2022-09-27T18:29:28.608Z,14.40
2022-09-27T18:33:33.184Z,11.20
2022-09-27T18:37:36.098Z,11.80
2022-09-27T18:41:38.747Z,11.70
2022-09-27T18:45:41.099Z,12.90
2022-09-27T18:49:43.677Z,14.10
2022-09-27T18:53:47.885Z,10.90
2022-09-27T18:57:50.380Z,10.30
2022-09-27T19:01:52.598Z,11.10
2022-09-27T19:05:58.972Z,11.30
2022-09-27T19:10:01.411Z,10.40
2022-09-27T19:14:03.874Z,9.90
2022-09-27T19:18:05.942Z,10.40
2022-09-27T19:22:08.623Z,10.70
2022-09-27T19:26:16.836Z,10.60
2022-09-27T19:30:19.866Z,9.50
2022-09-27T19:34:21.834Z,10.00
2022-09-27T19:38:23.746Z,9.80
2022-09-27T19:42:25.667Z,10.30
2022-09-27T19:46:27.747Z,11.10
2022-09-27T19:50:30.664Z,9.30
2022-09-27T19:54:32.575Z,9.60
2022-09-27T19:58:36.643Z,9.70
2022-09-27T20:02:38.562Z,9.40
2022-09-27T20:06:40.537Z,8.90
2022-09-27T20:10:42.426Z,9.00
2022-09-27T20:14:44.563Z,8.30
2022-09-27T20:18:49.067Z,7.40
2022-09-27T20:22:51.011Z,8.30
2022-09-27T20:26:53.036Z,7.20
2022-09-27T20:31:00.261Z,7.40
2022-09-27T20:35:03.509Z,6.80
2022-09-27T20:39:13.802Z,7.60
2022-09-27T20:43:15.928Z,7.60
2022-09-27T20:47:17.844Z,8.00
2022-09-27T20:51:20.558Z,7.10
2022-09-27T20:55:22.484Z,7.30
2022-09-27T20:59:24.483Z,8.50
2022-09-27T21:03:26.643Z,8.60
2022-09-27T21:07:28.651Z,7.00
2022-09-27T21:11:31.275Z,7.90
2022-09-27T21:15:33.404Z,8.30
2022-09-27T21:19:35.456Z,8.80
2022-09-27T21:23:43.496Z,8.00
2022-09-27T21:27:46.628Z,8.40
2022-09-27T21:31:48.823Z,8.90
2022-09-27T21:35:51.168Z,8.20
2022-09-27T21:39:53.466Z,8.80
2022-09-27T21:43:56.876Z,9.30
2022-09-27T21:47:58.989Z,8.40
2022-09-27T21:52:01.512Z,8.40
2022-09-27T21:56:05.015Z,8.80
2022-09-27T22:00:08.126Z,9.20
2022-09-27T22:04:10.965Z,8.30
2022-09-27T22:08:13.667Z,9.50
2022-09-27T22:12:15.954Z,9.30
2022-09-27T22:16:20.319Z,8.80
2022-09-27T22:20:22.535Z,9.70
2022-09-27T22:24:24.644Z,9.70
2022-09-27T22:28:26.795Z,10.30
2022-09-27T22:32:28.788Z,11.20
2022-09-27T22:36:32.486Z,10.80
2022-09-27T22:40:34.481Z,10.40
2022-09-27T22:44:38.841Z,10.50
2022-09-27T22:48:41.818Z,9.60
2022-09-27T22:52:43.904Z,10.90
2022-09-27T22:56:45.916Z,11.30
2022-09-27T23:00:47.961Z,10.10
2022-09-27T23:04:49.946Z,10.30
2022-09-27T23:08:53.232Z,8.90
2022-09-27T23:12:55.356Z,10.10
2022-09-27T23:16:58.318Z,10.20
2022-09-27T23:21:03.042Z,10.80
2022-09-27T23:25:05.567Z,10.40
2022-09-27T23:29:10.714Z,10.40
2022-09-27T23:33:15.311Z,9.50
2022-09-27T23:37:17.389Z,11.70
2022-09-27T23:41:20.229Z,10.80
2022-09-27T23:45:22.217Z,13.10
2022-09-27T23:49:25.469Z,13.00
2022-09-27T23:53:27.496Z,14.20
2022-09-27T23:57:30.439Z,14.10
